Park City, MT

5:16 AM MDT on July 07, 2015 (GMT -0600)
Yellowstone River Ranch, Pinecrest | | Change Station
CLOSE
Current Station
Personal Weather Station
Location: Columbus, MT
Elevation: 4147 ft
Nearby Weather Stations

Elev 4147 ft 45.62 °N, 109.10 °W | Updated 28 seconds ago

Clear
Clear
52.8 °F
Feels Like 52.8 °F
N
7.0
Wind Variable Wind from WNW
Gusts 10.0 mph

Today
High -- | Low -- °F
--% Chance of Precip.
Yesterday
High -- | Low -- °F
Precip. -- in
5:34 AM 9:06 PM
Waning Gibbous, 66% visible
Pressure 30.05 in
Visibility 10.0 miles
Clouds Few 20000 ft
Dew Point 49 °F
Humidity 86%
Rainfall 0.00 in
Snow Depth Not available.
UV 0.0 out of 12
Pollen 5.00 out of 12
Air Quality Not available.
Flu Activity Not available.
METAR KBIL 071053Z 36003KT 10SM FEW200 13/10 A3010 RMK AO2 SLP174 T01280100

More Conditions Fewer Conditions

Pressure 30.05 in
Visibility 10.0 miles
Clouds Few 20000 ft
Dew Point 49 °F
Humidity 86%
Rainfall 0.00 in
Snow Depth Not available.
UV 0.0 out of 12
Pollen 5.00 out of 12
Air Quality Not available.
Flu Activity Not available.
METAR KBIL 071053Z 36003KT 10SM FEW200 13/10 A3010 RMK AO2 SLP174 T01280100

More Conditions Fewer Conditions

10-Day Weather Forecast

×

Almanac

Astronomy

Jul. 07, 2015 Rise Set
Actual Time
Civil Twilight
Nautical Twilight
Astronomical Twilight
Moon
Length of Visible Light
Length of Day
Tomorrow will be .
, % of the Moon is Illuminated

Today's Extremes

State Highs State Lows

Community

WunderPhotos

Upload Photos

1,835,767 photos uploaded!

WunderBlogs® & News

Nearby

Air Quality

  Air Quality AQ Index Pollutant
Not available.

Snow Depth

Station Depth Elevation

Earthquake Activity

City Distance Mag. Time & Date
Minimum magnitude displayed is 2.5.

Coastal Water Temperatures

Place Temperature

Stations

Nearby Weather Stations

Station Location Temp. Windchill Dew Point Humidity Wind Precip. Elev Updated Type